Time;durP1;ratioP1;P1;durP2;ratioP2;P2;SDS_P1;SDS_P2;PMS_P1;PMS_P2;Temp;Humidity;BMP_temperature;BMP_pressure;BME280_temperature;BME280_humidity;BME280_pressure;Samples;Min_cycle;Max_cycle;Signal;HPM_P1;HPM_P2
2023/12/14 00:02:07;;;;;;;;;;;1.40;83.60;;;;;;5066932;23;20511;-83
2023/12/14 00:04:28;;;;;;;;;;;1.50;83.10;;;;;;5085091;23;20412;-83
2023/12/14 00:06:48;;;;;;;;;;;1.60;83.00;;;;;;5086546;23;20355;-86
2023/12/14 00:08:49;;;;;;;;;;;1.50;82.80;;;;;;5063143;23;19912;-84
2023/12/14 00:11:24;;;;;;;;;;;1.60;82.70;;;;;;5087564;23;20000;-85
2023/12/14 00:13:44;;;;;;;;;;;1.50;82.60;;;;;;5087051;23;19909;-88
2023/12/14 00:16:05;;;;;;;;;;;1.60;82.60;;;;;;5066458;23;20433;-85
2023/12/14 00:18:26;;;;;;;;;;;1.50;82.60;;;;;;5087587;23;20396;-85
2023/12/14 00:20:48;;;;;;;;;;;1.40;82.50;;;;;;5065342;23;20315;-85
2023/12/14 00:23:11;;;;;;;;;;;1.40;83.20;;;;;;5086359;23;20422;-84
2023/12/14 00:25:31;;;;;;;;;;;1.50;82.90;;;;;;5087987;23;20362;-86
2023/12/14 00:27:52;;;;;;;;;;;1.50;82.70;;;;;;5064461;23;20459;-86
2023/12/14 00:30:12;;;;;;;;;;;1.50;82.80;;;;;;5066393;23;19971;-85
2023/12/14 00:32:33;;;;;;;;;;;1.50;82.40;;;;;;5087389;23;20419;-88
2023/12/14 00:34:53;;;;;;;;;;;1.50;82.70;;;;;;5086186;23;19909;-85
2023/12/14 00:37:14;;;;;;;;;;;1.50;82.60;;;;;;5087429;23;20393;-87
2023/12/14 00:39:34;;;;;;;;;;;1.50;82.40;;;;;;5087636;23;20417;-84
2023/12/14 00:49:54;;;;;;;;;;;1.50;82.90;;;;;;5115205;23;19924;-85
2023/12/14 00:52:15;;;;;;;;;;;1.60;82.90;;;;;;5111908;23;19975;-86
2023/12/14 00:54:20;;;;;;;;;;;1.60;82.90;;;;;;5113429;23;19912;-85
2023/12/14 00:56:41;;;;;;;;;;;1.60;82.80;;;;;;5110852;23;20334;-88
2023/12/14 00:59:02;;;;;;;;;;;1.50;82.50;;;;;;5112491;23;20393;-84
2023/12/14 01:01:03;;;;;;;;;;;1.60;83.00;;;;;;5113259;23;19918;-84
2023/12/14 01:03:23;;;;;;;;;;;1.50;82.90;;;;;;5104213;23;20495;-84
2023/12/14 01:05:44;;;;;;;;;;;1.60;83.00;;;;;;5091046;23;20343;-84
2023/12/14 01:08:07;;;;;;;;;;;1.70;83.00;;;;;;5111450;23;20367;-83
2023/12/14 01:10:38;;;;;;;;;;;1.60;82.90;;;;;;5115237;23;20464;-82
2023/12/14 01:13:01;;;;;;;;;;;1.60;82.80;;;;;;5112057;23;20537;-84
2023/12/14 01:15:22;;;;;;;;;;;1.60;83.00;;;;;;5115128;23;20389;-83
2023/12/14 01:17:43;;;;;;;;;;;1.60;82.80;;;;;;5112351;23;20429;-84
2023/12/14 01:20:05;;;;;;;;;;;1.60;82.80;;;;;;5115037;23;20354;-83
2023/12/14 01:22:26;;;;;;;;;;;1.60;82.70;;;;;;5111967;23;20385;-83
2023/12/14 01:24:46;;;;;;;;;;;1.70;82.80;;;;;;5092192;23;20392;-84
2023/12/14 01:27:09;;;;;;;;;;;1.70;82.60;;;;;;5090130;23;20005;-84
2023/12/14 01:29:38;;;;;;;;;;;1.70;82.60;;;;;;5110036;23;20314;-83
2023/12/14 01:32:05;;;;;;;;;;;1.70;82.60;;;;;;5109123;23;19960;-84
2023/12/14 01:34:26;;;;;;;;;;;1.60;82.60;;;;;;5112456;23;20382;-84
2023/12/14 01:36:47;;;;;;;;;;;1.70;82.70;;;;;;5110274;23;20510;-83
2023/12/14 01:39:13;;;;;;;;;;;1.70;82.80;;;;;;5111033;23;19983;-84
2023/12/14 01:41:33;;;;;;;;;;;1.70;82.70;;;;;;5111685;23;20011;-84
2023/12/14 01:43:34;;;;;;;;;;;1.70;82.40;;;;;;5112711;23;19987;-83
2023/12/14 01:45:35;;;;;;;;;;;1.70;82.60;;;;;;5062277;23;19943;-84
2023/12/14 01:47:36;;;;;;;;;;;1.70;82.60;;;;;;5108930;23;19909;-84
2023/12/14 01:49:37;;;;;;;;;;;1.70;82.60;;;;;;5086570;23;19924;-83
2023/12/14 01:51:38;;;;;;;;;;;1.80;82.60;;;;;;5114433;23;19904;-85
2023/12/14 01:53:49;;;;;;;;;;;;;;;;;;;;;
2023/12/14 01:56:09;;;;;;;;;;;1.60;82.40;;;;;;5025889;23;20340;-85
2023/12/14 01:58:21;;;;;;;;;;;1.60;82.60;;;;;;5085334;23;20057;-85
2023/12/14 02:01:00;;;;;;;;;;;1.60;82.50;;;;;;5111440;23;20522;-85
2023/12/14 02:03:20;;;;;;;;;;;1.60;82.50;;;;;;5111230;23;20144;-84
2023/12/14 02:05:46;;;;;;;;;;;1.70;82.70;;;;;;5105079;23;20780;-84
2023/12/14 02:08:09;;;;;;;;;;;1.50;82.50;;;;;;5113257;23;20347;-84
2023/12/14 02:10:30;;;;;;;;;;;1.60;82.90;;;;;;5107720;23;20561;-85
2023/12/14 02:12:50;;;;;;;;;;;1.70;82.90;;;;;;5111459;23;20346;-85
2023/12/14 02:15:11;;;;;;;;;;;1.70;83.50;;;;;;5088518;23;19916;-85
2023/12/14 02:17:32;;;;;;;;;;;1.60;82.70;;;;;;5112667;23;20378;-85
2023/12/14 02:19:52;;;;;;;;;;;1.70;82.60;;;;;;5111085;23;20880;-85
2023/12/14 02:21:53;;;;;;;;;;;1.70;82.60;;;;;;5086101;23;19908;-85
2023/12/14 02:23:54;;;;;;;;;;;1.70;82.60;;;;;;5113453;23;19953;-85
2023/12/14 02:25:54;;;;;;;;;;;1.80;82.60;;;;;;5086295;23;19912;-84
2023/12/14 02:27:56;;;;;;;;;;;1.80;82.60;;;;;;5085681;23;19905;-85
2023/12/14 02:30:17;;;;;;;;;;;1.80;82.50;;;;;;5111342;23;20537;-85
2023/12/14 02:32:21;;;;;;;;;;;1.80;82.60;;;;;;5110762;23;19959;-84
2023/12/14 02:34:41;;;;;;;;;;;1.70;82.30;;;;;;5110719;23;19900;-84
2023/12/14 02:37:02;;;;;;;;;;;1.80;82.50;;;;;;5110939;23;20314;-84
2023/12/14 02:39:22;;;;;;;;;;;1.80;82.40;;;;;;5111239;23;20578;-84
2023/12/14 02:41:43;;;;;;;;;;;1.70;82.40;;;;;;5111055;23;20341;-84
2023/12/14 02:44:04;;;;;;;;;;;1.70;82.30;;;;;;5110235;23;20327;-85
2023/12/14 02:46:24;;;;;;;;;;;1.80;82.50;;;;;;5112369;23;20326;-84
2023/12/14 02:48:47;;;;;;;;;;;1.80;82.30;;;;;;5112888;23;20306;-84
2023/12/14 02:51:14;;;;;;;;;;;1.80;82.20;;;;;;5066107;23;20358;-84
2023/12/14 02:53:15;;;;;;;;;;;1.60;82.10;;;;;;5088098;23;19951;-83
2023/12/14 02:55:16;;;;;;;;;;;1.80;82.40;;;;;;5085995;23;19933;-84
2023/12/14 02:57:26;;;;;;;;;;;1.80;82.40;;;;;;5085416;23;19947;-84
2023/12/14 02:59:31;;;;;;;;;;;1.70;82.20;;;;;;5059197;23;20644;-85
2023/12/14 03:01:42;;;;;;;;;;;1.80;82.30;;;;;;5062843;23;19901;-84
2023/12/14 03:03:45;;;;;;;;;;;1.90;82.30;;;;;;5058899;23;19905;-83
2023/12/14 03:06:06;;;;;;;;;;;1.80;82.30;;;;;;5082184;23;19905;-83
2023/12/14 03:08:30;;;;;;;;;;;1.90;82.30;;;;;;5087398;23;20357;-84
2023/12/14 03:10:50;;;;;;;;;;;1.80;82.30;;;;;;5087362;23;20317;-84
2023/12/14 03:15:38;;;;;;;;;;;1.90;82.10;;;;;;5028774;23;20355;-82
2023/12/14 03:17:39;;;;;;;;;;;1.80;82.50;;;;;;5034860;23;19936;-83
2023/12/14 03:19:59;;;;;;;;;;;1.80;81.90;;;;;;5037403;23;20225;-85
2023/12/14 03:22:20;;;;;;;;;;;1.80;81.70;;;;;;5036470;23;19945;-85
2023/12/14 03:24:40;;;;;;;;;;;1.80;81.80;;;;;;5036463;23;19924;-85
2023/12/14 03:27:01;;;;;;;;;;;1.80;81.80;;;;;;5037802;23;20387;-84
2023/12/14 03:29:22;;;;;;;;;;;1.80;81.80;;;;;;5017171;23;20466;-84
2023/12/14 03:31:42;;;;;;;;;;;1.80;81.70;;;;;;5017559;23;20415;-85
2023/12/14 03:34:03;;;;;;;;;;;1.80;81.90;;;;;;5015509;23;20324;-85
2023/12/14 03:36:26;;;;;;;;;;;1.80;81.90;;;;;;5036504;23;20347;-85
2023/12/14 03:38:47;;;;;;;;;;;1.80;81.90;;;;;;5035981;23;20386;-85
2023/12/14 03:40:47;;;;;;;;;;;1.70;81.70;;;;;;5013989;23;19902;-85
2023/12/14 03:42:48;;;;;;;;;;;1.70;81.70;;;;;;5037751;23;19902;-85
2023/12/14 03:44:48;;;;;;;;;;;1.70;81.70;;;;;;5036882;23;19910;-83
2023/12/14 03:46:49;;;;;;;;;;;1.70;81.90;;;;;;5035155;23;19906;-86
2023/12/14 03:48:49;;;;;;;;;;;1.70;81.90;;;;;;5036759;23;19979;-85
2023/12/14 03:51:10;;;;;;;;;;;1.70;82.00;;;;;;5038351;23;20315;-85
2023/12/14 03:53:31;;;;;;;;;;;1.70;82.10;;;;;;5065400;23;20349;-85
2023/12/14 03:55:51;;;;;;;;;;;1.60;82.10;;;;;;5081917;23;19904;-85
2023/12/14 03:58:12;;;;;;;;;;;1.70;82.30;;;;;;5086843;23;20349;-85
2023/12/14 04:00:35;;;;;;;;;;;1.70;82.20;;;;;;5066552;23;20445;-85
2023/12/14 04:02:55;;;;;;;;;;;1.70;82.40;;;;;;5065542;23;20510;-84
2023/12/14 04:05:16;;;;;;;;;;;1.70;83.10;;;;;;5087010;23;20608;-85
2023/12/14 04:07:39;;;;;;;;;;;1.70;82.30;;;;;;5064650;23;20330;-83
2023/12/14 04:09:59;;;;;;;;;;;1.70;82.30;;;;;;5087249;23;19901;-85
2023/12/14 04:12:20;;;;;;;;;;;1.70;82.30;;;;;;5087890;23;20289;-85
2023/12/14 04:14:45;;;;;;;;;;;1.70;82.20;;;;;;5065332;23;19902;-85
2023/12/14 04:16:46;;;;;;;;;;;1.70;82.30;;;;;;5085285;23;19908;-85
2023/12/14 04:18:46;;;;;;;;;;;1.70;82.40;;;;;;5087870;23;19961;-85
2023/12/14 04:20:47;;;;;;;;;;;1.70;82.40;;;;;;5061824;23;19901;-85
2023/12/14 04:22:48;;;;;;;;;;;1.80;82.50;;;;;;5062032;23;19921;-85
2023/12/14 04:24:48;;;;;;;;;;;1.80;82.50;;;;;;5034426;23;19905;-85
2023/12/14 04:26:49;;;;;;;;;;;1.80;82.40;;;;;;5059803;23;19979;-85
2023/12/14 04:28:50;;;;;;;;;;;1.80;82.40;;;;;;5034604;23;19901;-85
2023/12/14 04:31:10;;;;;;;;;;;1.80;82.20;;;;;;5061846;23;19905;-85
2023/12/14 04:33:31;;;;;;;;;;;1.80;82.30;;;;;;5085005;23;20676;-85
2023/12/14 04:35:52;;;;;;;;;;;1.80;82.10;;;;;;5064627;23;20386;-85
2023/12/14 04:38:13;;;;;;;;;;;1.80;82.30;;;;;;5086777;23;20397;-84
2023/12/14 04:40:34;;;;;;;;;;;1.80;82.30;;;;;;5087961;23;19901;-87
2023/12/14 04:42:54;;;;;;;;;;;1.70;82.20;;;;;;5087187;23;20623;-86
2023/12/14 04:45:16;;;;;;;;;;;1.70;82.30;;;;;;5086225;23;20266;-84
2023/12/14 04:47:37;;;;;;;;;;;1.70;82.30;;;;;;5064491;23;20669;-84
2023/12/14 04:49:57;;;;;;;;;;;1.70;82.30;;;;;;5077415;23;19995;-83
2023/12/14 04:52:17;;;;;;;;;;;1.70;82.50;;;;;;5111924;23;20346;-85
2023/12/14 04:54:40;;;;;;;;;;;1.80;82.60;;;;;;5110028;23;20345;-85
2023/12/14 04:56:41;;;;;;;;;;;1.80;82.50;;;;;;5109346;23;20504;-86
2023/12/14 04:58:42;;;;;;;;;;;1.80;82.60;;;;;;5110792;23;19900;-86
2023/12/14 05:00:43;;;;;;;;;;;1.80;82.60;;;;;;5109588;23;19951;-85
2023/12/14 05:02:48;;;;;;;;;;;1.70;82.40;;;;;;5084743;23;19911;-85
2023/12/14 05:04:48;;;;;;;;;;;1.80;82.60;;;;;;5109731;23;19904;-85
2023/12/14 05:07:09;;;;;;;;;;;1.80;82.80;;;;;;5110648;23;20031;-83
2023/12/14 05:09:29;;;;;;;;;;;1.80;82.60;;;;;;5112108;23;19904;-85
2023/12/14 05:11:50;;;;;;;;;;;1.80;82.60;;;;;;5109243;23;19924;-85
2023/12/14 05:14:10;;;;;;;;;;;1.90;82.60;;;;;;5109304;23;19946;-85
2023/12/14 05:16:31;;;;;;;;;;;1.90;82.60;;;;;;5108911;23;20234;-85
2023/12/14 05:18:52;;;;;;;;;;;1.90;82.60;;;;;;5089442;23;20327;-85
2023/12/14 05:21:16;;;;;;;;;;;1.80;82.40;;;;;;5108620;23;20103;-85
2023/12/14 05:23:37;;;;;;;;;;;1.90;82.60;;;;;;5090189;23;20699;-85
2023/12/14 05:25:58;;;;;;;;;;;1.80;82.40;;;;;;5087995;23;20351;-85
2023/12/14 05:28:18;;;;;;;;;;;1.90;82.60;;;;;;5089163;23;20335;-85
2023/12/14 05:30:21;;;;;;;;;;;1.80;82.50;;;;;;5110112;23;19912;-85
2023/12/14 05:32:24;;;;;;;;;;;1.80;82.50;;;;;;5107694;23;20285;-87
2023/12/14 05:34:25;;;;;;;;;;;1.80;82.80;;;;;;5061533;23;20291;-86
2023/12/14 05:36:26;;;;;;;;;;;1.80;82.70;;;;;;5109364;23;19904;-86
2023/12/14 05:38:47;;;;;;;;;;;1.80;82.80;;;;;;5090728;23;20366;-86
2023/12/14 05:41:07;;;;;;;;;;;1.80;83.20;;;;;;5110083;23;19913;-86
2023/12/14 05:43:08;;;;;;;;;;;1.80;83.00;;;;;;5061385;23;19939;-86
2023/12/14 05:45:28;;;;;;;;;;;1.90;83.10;;;;;;5112110;23;20341;-87
2023/12/14 05:47:49;;;;;;;;;;;1.90;82.90;;;;;;5089474;23;20381;-86
2023/12/14 05:50:09;;;;;;;;;;;1.90;83.00;;;;;;5088780;23;19952;-87
2023/12/14 05:52:30;;;;;;;;;;;1.80;82.80;;;;;;5089432;23;20362;-86
2023/12/14 05:54:51;;;;;;;;;;;1.80;82.90;;;;;;5092076;23;20282;-86
2023/12/14 05:57:12;;;;;;;;;;;1.90;83.10;;;;;;5091604;23;20381;-86
2023/12/14 05:59:33;;;;;;;;;;;1.90;83.00;;;;;;5112945;23;20354;-87
2023/12/14 06:01:34;;;;;;;;;;;1.90;83.00;;;;;;5085747;23;19928;-86
2023/12/14 06:03:34;;;;;;;;;;;1.90;83.00;;;;;;5110461;23;19978;-85
2023/12/14 06:05:35;;;;;;;;;;;1.90;83.00;;;;;;5084647;23;20055;-85
2023/12/14 06:07:35;;;;;;;;;;;2.00;83.10;;;;;;5108520;23;19904;-86
2023/12/14 06:09:36;;;;;;;;;;;2.00;83.00;;;;;;5082491;23;20234;-87
2023/12/14 06:11:37;;;;;;;;;;;2.00;83.00;;;;;;5085359;23;20484;-87
2023/12/14 06:13:57;;;;;;;;;;;2.00;83.00;;;;;;5093287;23;19915;-86
2023/12/14 06:16:18;;;;;;;;;;;2.00;83.00;;;;;;5113171;23;19931;-87
2023/12/14 06:18:24;;;;;;;;;;;2.00;83.00;;;;;;5063361;23;19971;-87
2023/12/14 06:20:44;;;;;;;;;;;2.00;83.00;;;;;;5092465;23;19908;-87
2023/12/14 06:23:05;;;;;;;;;;;2.10;83.00;;;;;;5113143;23;19904;-86
2023/12/14 06:25:25;;;;;;;;;;;2.00;82.80;;;;;;5095144;23;19908;-86
2023/12/14 06:27:46;;;;;;;;;;;2.10;82.90;;;;;;5120592;23;19928;-89
2023/12/14 06:30:08;;;;;;;;;;;2.10;82.80;;;;;;5117739;23;19912;-90
2023/12/14 06:32:29;;;;;;;;;;;2.10;82.80;;;;;;5117757;23;19916;-87
2023/12/14 06:34:50;;;;;;;;;;;2.00;82.60;;;;;;5139241;23;19896;-89
2023/12/14 06:37:10;;;;;;;;;;;2.10;82.80;;;;;;5138402;23;19904;-89
2023/12/14 06:39:18;;;;;;;;;;;2.00;82.60;;;;;;5138695;23;19940;-90
2023/12/14 06:41:20;;;;;;;;;;;2.00;82.70;;;;;;5138915;23;19907;-90
2023/12/14 06:43:21;;;;;;;;;;;2.10;83.00;;;;;;5139526;23;19931;-90
2023/12/14 06:45:21;;;;;;;;;;;2.10;82.90;;;;;;5139366;23;19908;-90
2023/12/14 06:47:22;;;;;;;;;;;2.10;82.90;;;;;;5114503;23;19897;-91
2023/12/14 06:49:42;;;;;;;;;;;2.10;82.90;;;;;;5137057;23;19904;-88
2023/12/14 06:52:03;;;;;;;;;;;2.20;83.00;;;;;;5121286;23;19939;-87
2023/12/14 06:54:24;;;;;;;;;;;2.10;83.00;;;;;;5117638;23;19904;-87
2023/12/14 06:56:44;;;;;;;;;;;2.10;83.00;;;;;;5096131;23;19909;-86
2023/12/14 06:59:05;;;;;;;;;;;2.10;82.90;;;;;;5120307;23;19904;-87
2023/12/14 07:01:25;;;;;;;;;;;2.10;83.10;;;;;;5119974;23;19908;-87
2023/12/14 07:03:46;;;;;;;;;;;2.10;82.90;;;;;;5094092;23;19973;-87
2023/12/14 07:06:07;;;;;;;;;;;2.10;83.00;;;;;;5115021;23;19966;-88
2023/12/14 07:08:27;;;;;;;;;;;2.10;82.90;;;;;;5113450;23;19908;-86
2023/12/14 07:10:48;;;;;;;;;;;2.20;83.00;;;;;;5115614;23;19908;-87
2023/12/14 07:13:08;;;;;;;;;;;2.20;83.00;;;;;;5115468;23;19904;-87
2023/12/14 07:15:29;;;;;;;;;;;2.20;83.10;;;;;;5093381;23;19905;-86
2023/12/14 07:17:29;;;;;;;;;;;2.20;83.00;;;;;;5066364;23;19912;-86
2023/12/14 07:19:30;;;;;;;;;;;2.30;83.20;;;;;;5114219;23;19909;-87
2023/12/14 07:21:50;;;;;;;;;;;2.20;83.70;;;;;;5110974;23;19940;-87
2023/12/14 07:23:51;;;;;;;;;;;2.20;83.00;;;;;;5086766;23;20590;-86
2023/12/14 07:26:12;;;;;;;;;;;2.20;83.20;;;;;;5112084;23;19904;-86
2023/12/14 07:28:32;;;;;;;;;;;2.20;83.00;;;;;;5112689;23;19931;-86
2023/12/14 07:30:53;;;;;;;;;;;2.20;83.10;;;;;;5112783;23;19932;-86
2023/12/14 07:33:14;;;;;;;;;;;2.30;83.20;;;;;;5111378;23;19905;-88
2023/12/14 07:35:35;;;;;;;;;;;2.30;83.10;;;;;;5112451;23;19908;-86
2023/12/14 07:37:55;;;;;;;;;;;2.30;83.20;;;;;;5113229;23;19999;-86
2023/12/14 07:40:16;;;;;;;;;;;2.20;83.10;;;;;;5110839;23;19936;-88
2023/12/14 07:42:19;;;;;;;;;;;2.30;83.20;;;;;;5086136;23;19917;-86
2023/12/14 07:44:20;;;;;;;;;;;2.30;83.20;;;;;;5112025;23;19908;-87
2023/12/14 07:46:20;;;;;;;;;;;2.30;83.20;;;;;;5109395;23;20247;-86
2023/12/14 07:48:21;;;;;;;;;;;2.30;83.20;;;;;;5061440;23;19945;-87
2023/12/14 07:50:21;;;;;;;;;;;2.30;83.20;;;;;;5110898;23;19939;-86
2023/12/14 07:52:22;;;;;;;;;;;2.30;83.10;;;;;;5085884;23;19905;-87
2023/12/14 07:54:33;;;;;;;;;;;2.30;83.10;;;;;;5086070;23;19934;-86
2023/12/14 07:56:34;;;;;;;;;;;2.30;83.10;;;;;;5109419;23;19928;-86
2023/12/14 07:58:55;;;;;;;;;;;2.40;83.10;;;;;;5088798;23;19935;-86
2023/12/14 08:00:56;;;;;;;;;;;2.30;83.10;;;;;;5114236;23;19908;-86
2023/12/14 08:03:16;;;;;;;;;;;2.40;83.20;;;;;;5110953;23;20015;-86
2023/12/14 08:05:37;;;;;;;;;;;2.40;83.20;;;;;;5090800;23;20377;-86
2023/12/14 08:07:57;;;;;;;;;;;2.40;83.10;;;;;;5089422;23;19912;-86
2023/12/14 08:10:19;;;;;;;;;;;2.40;83.20;;;;;;5113600;23;20011;-86
2023/12/14 08:12:39;;;;;;;;;;;2.40;83.20;;;;;;5112342;23;19904;-85
2023/12/14 08:15:00;;;;;;;;;;;2.40;83.30;;;;;;5111487;23;19912;-86
2023/12/14 08:17:23;;;;;;;;;;;2.50;83.30;;;;;;5112769;23;19912;-88
2023/12/14 08:19:44;;;;;;;;;;;2.50;83.30;;;;;;5111629;23;19908;-86
2023/12/14 08:21:44;;;;;;;;;;;2.50;83.30;;;;;;5112398;23;19911;-86
2023/12/14 08:23:45;;;;;;;;;;;2.50;83.30;;;;;;5112374;23;19911;-88
2023/12/14 08:25:45;;;;;;;;;;;2.50;83.30;;;;;;5087983;23;19987;-86
2023/12/14 08:27:47;;;;;;;;;;;2.50;83.30;;;;;;5113095;23;20262;-85
2023/12/14 08:29:47;;;;;;;;;;;2.60;83.40;;;;;;5115163;23;19915;-85
2023/12/14 08:32:08;;;;;;;;;;;2.50;83.40;;;;;;5117190;23;19904;-86
2023/12/14 08:34:09;;;;;;;;;;;2.60;83.40;;;;;;5115385;23;19904;-86
2023/12/14 08:36:31;;;;;;;;;;;2.60;83.50;;;;;;5114321;23;19908;-87
2023/12/14 08:38:52;;;;;;;;;;;2.60;83.50;;;;;;5115262;23;19919;-88
2023/12/14 08:41:14;;;;;;;;;;;2.60;83.50;;;;;;5094783;23;21612;-87
2023/12/14 08:43:35;;;;;;;;;;;2.70;83.60;;;;;;5114679;23;19908;-86
2023/12/14 08:48:00;;;;;;;;;;;2.70;83.50;;;;;;5108402;23;20071;-84
2023/12/14 08:50:06;;;;;;;;;;;2.70;83.60;;;;;;5084558;23;19908;-85
2023/12/14 08:52:18;;;;;;;;;;;2.70;83.60;;;;;;5085343;23;20286;-86
2023/12/14 08:54:38;;;;;;;;;;;2.70;83.60;;;;;;5089102;23;20039;-86
2023/12/14 08:57:00;;;;;;;;;;;2.90;83.60;;;;;;5112692;23;19912;-85
2023/12/14 08:59:21;;;;;;;;;;;2.80;83.60;;;;;;5111406;23;19908;-85
2023/12/14 09:01:42;;;;;;;;;;;2.90;83.60;;;;;;5112533;23;19983;-85
2023/12/14 09:04:03;;;;;;;;;;;2.80;83.50;;;;;;5112562;23;19904;-84
2023/12/14 09:06:23;;;;;;;;;;;2.80;83.50;;;;;;5112152;23;19905;-85
2023/12/14 09:08:44;;;;;;;;;;;2.90;83.60;;;;;;5109640;23;19908;-85
2023/12/14 09:11:08;;;;;;;;;;;2.90;83.50;;;;;;5110468;23;19912;-85
2023/12/14 09:13:29;;;;;;;;;;;2.90;83.50;;;;;;5110041;23;19908;-84
2023/12/14 09:16:10;;;;;;;;;;;2.90;83.60;;;;;;5111018;23;20105;-86
2023/12/14 09:18:10;;;;;;;;;;;2.90;83.60;;;;;;4989159;23;19962;-85
2023/12/14 09:20:37;;;;;;;;;;;3.00;83.70;;;;;;4986950;23;19906;-85
2023/12/14 09:22:38;;;;;;;;;;;2.90;83.60;;;;;;4987814;23;19910;-85
2023/12/14 09:24:38;;;;;;;;;;;3.00;83.70;;;;;;4988262;23;20161;-85
2023/12/14 09:26:39;;;;;;;;;;;3.00;83.70;;;;;;4985884;23;19935;-85
2023/12/14 09:28:59;;;;;;;;;;;3.00;83.70;;;;;;4985923;23;19906;-85
2023/12/14 09:31:01;;;;;;;;;;;3.10;83.70;;;;;;4986695;23;19913;-87
2023/12/14 09:33:21;;;;;;;;;;;3.10;83.70;;;;;;4985385;23;19905;-85
2023/12/14 09:35:42;;;;;;;;;;;3.10;83.70;;;;;;4988770;23;19906;-85
2023/12/14 09:38:03;;;;;;;;;;;3.20;83.80;;;;;;4989084;23;19916;-84
2023/12/14 09:41:00;;;;;;;;;;;3.10;83.70;;;;;;4988876;23;19906;-85
2023/12/14 09:46:25;;;;;;;;;;;3.20;83.80;;;;;;4954759;23;19924;-86
2023/12/14 09:48:26;;;;;;;;;;;3.20;83.80;;;;;;5086449;23;19995;-86
2023/12/14 09:50:26;;;;;;;;;;;3.20;83.80;;;;;;5109606;23;19909;-85
2023/12/14 09:52:27;;;;;;;;;;;3.20;83.80;;;;;;5086777;23;19935;-86
2023/12/14 09:54:46;;;;;;;;;;;3.30;83.90;;;;;;5086604;23;19987;-84
2023/12/14 09:57:07;;;;;;;;;;;3.30;83.90;;;;;;5113431;23;19920;-85
2023/12/14 10:02:37;;;;;;;;;;;3.30;83.90;;;;;;5113666;23;19915;-85
2023/12/14 10:05:03;;;;;;;;;;;3.30;83.90;;;;;;5112642;23;19927;-85
2023/12/14 10:07:24;;;;;;;;;;;3.40;84.00;;;;;;5112276;23;19905;-85
2023/12/14 10:09:45;;;;;;;;;;;3.50;84.10;;;;;;5114243;23;19975;-84
2023/12/14 10:21:36;;;;;;;;;;;3.50;84.00;;;;;;5115527;23;19932;-86
2023/12/14 10:24:00;;;;;;;;;;;3.50;84.00;;;;;;5110923;23;19908;-86
2023/12/14 10:26:43;;;;;;;;;;;3.60;84.00;;;;;;5088862;23;20248;-86
2023/12/14 10:28:43;;;;;;;;;;;3.60;83.90;;;;;;5115638;23;19916;-84
2023/12/14 10:30:46;;;;;;;;;;;3.60;83.90;;;;;;5113253;23;19909;-87
2023/12/14 10:33:07;;;;;;;;;;;3.60;83.90;;;;;;5112749;23;19904;-85
2023/12/14 10:35:31;;;;;;;;;;;3.60;83.90;;;;;;5114292;23;19911;-84
2023/12/14 10:37:58;;;;;;;;;;;3.60;83.80;;;;;;5115132;23;19978;-85
2023/12/14 10:40:20;;;;;;;;;;;3.60;83.80;;;;;;5112983;23;20003;-86
2023/12/14 10:42:43;;;;;;;;;;;3.70;83.80;;;;;;5093801;23;19939;-86
2023/12/14 10:45:19;;;;;;;;;;;3.60;83.70;;;;;;5114767;23;19915;-86
2023/12/14 10:50:41;;;;;;;;;;;3.60;83.70;;;;;;5114570;23;19908;-87
2023/12/14 10:53:01;;;;;;;;;;;3.70;83.70;;;;;;5084940;23;19908;-84
2023/12/14 10:55:34;;;;;;;;;;;3.70;83.80;;;;;;5115936;23;19909;-87
2023/12/14 10:58:01;;;;;;;;;;;3.70;83.80;;;;;;5090244;23;19947;-85
2023/12/14 11:00:22;;;;;;;;;;;3.80;83.90;;;;;;5090548;23;19975;-86
2023/12/14 11:02:49;;;;;;;;;;;3.70;83.80;;;;;;5110124;23;19912;-85
2023/12/14 11:10:12;;;;;;;;;;;3.70;83.80;;;;;;5116850;23;20515;-85
2023/12/14 11:12:33;;;;;;;;;;;3.80;83.90;;;;;;5094349;23;19932;-86
2023/12/14 11:18:15;;;;;;;;;;;3.90;83.90;;;;;;5089042;23;19923;-85
2023/12/14 11:20:30;;;;;;;;;;;3.80;83.90;;;;;;5066529;23;19975;-85
2023/12/14 11:22:50;;;;;;;;;;;3.90;83.90;;;;;;5090007;23;19920;-84
2023/12/14 11:25:02;;;;;;;;;;;3.80;83.90;;;;;;5039326;23;20119;-86
2023/12/14 11:27:19;;;;;;;;;;;3.90;83.90;;;;;;5038643;23;19909;-87
2023/12/14 11:29:21;;;;;;;;;;;4.00;84.00;;;;;;5039356;23;19909;-85
2023/12/14 11:31:45;;;;;;;;;;;4.00;84.00;;;;;;5041511;23;19945;-86
2023/12/14 11:34:07;;;;;;;;;;;4.00;84.00;;;;;;5039365;23;19910;-86
2023/12/14 11:36:12;;;;;;;;;;;4.00;84.00;;;;;;5016515;23;19909;-85
2023/12/14 11:38:32;;;;;;;;;;;4.00;83.90;;;;;;5021789;23;19992;-85
2023/12/14 11:40:53;;;;;;;;;;;4.10;84.00;;;;;;5042139;23;19916;-84
2023/12/14 11:43:16;;;;;;;;;;;4.20;84.10;;;;;;5041125;23;19937;-84
2023/12/14 11:45:40;;;;;;;;;;;4.10;84.00;;;;;;5040933;23;19910;-85
2023/12/14 11:48:10;;;;;;;;;;;4.20;84.10;;;;;;5041161;23;19913;-86
2023/12/14 11:50:34;;;;;;;;;;;4.20;84.00;;;;;;5040110;23;19973;-85
2023/12/14 11:52:55;;;;;;;;;;;4.10;84.70;;;;;;5041944;23;20097;-84
2023/12/14 11:55:16;;;;;;;;;;;4.20;84.00;;;;;;5021012;23;19961;-86
2023/12/14 11:57:36;;;;;;;;;;;4.20;83.80;;;;;;5012887;23;19914;-84
2023/12/14 11:59:52;;;;;;;;;;;4.10;83.40;;;;;;5012539;23;19970;-86
2023/12/14 12:01:59;;;;;;;;;;;4.10;83.00;;;;;;5033442;23;19909;-85
2023/12/14 12:04:36;;;;;;;;;;;;;;;;;;;;;
2023/12/14 12:06:42;;;;;;;;;;;4.20;82.90;;;;;;5086797;23;19910;-84
2023/12/14 12:08:49;;;;;;;;;;;4.20;82.80;;;;;;5064640;23;19905;-85
2023/12/14 12:11:30;;;;;;;;;;;4.10;82.60;;;;;;5088642;23;19920;-87
2023/12/14 12:13:57;;;;;;;;;;;4.10;82.60;;;;;;5071779;23;19932;-85
2023/12/14 12:16:23;;;;;;;;;;;4.10;82.40;;;;;;5090938;23;19915;-87
2023/12/14 12:18:46;;;;;;;;;;;4.10;82.40;;;;;;5090846;23;19962;-85
2023/12/14 12:21:11;;;;;;;;;;;4.10;82.30;;;;;;5093231;23;19908;-85
2023/12/14 12:23:45;;;;;;;;;;;4.00;82.30;;;;;;5069473;23;19955;-85
2023/12/14 12:26:14;;;;;;;;;;;4.10;82.40;;;;;;5085852;23;19980;-86
2023/12/14 12:28:46;;;;;;;;;;;4.10;82.50;;;;;;5086539;23;20011;-85
2023/12/14 12:30:52;;;;;;;;;;;4.00;82.40;;;;;;5063473;23;19933;-85
2023/12/14 12:33:22;;;;;;;;;;;4.00;82.50;;;;;;5068952;23;19920;-85
2023/12/14 12:38:14;;;;;;;;;;;4.00;82.40;;;;;;5112156;23;20405;-86
2023/12/14 12:40:34;;;;;;;;;;;4.00;82.30;;;;;;5027987;23;20314;-84
2023/12/14 12:42:55;;;;;;;;;;;4.00;82.30;;;;;;5113922;23;19908;-85
2023/12/14 12:45:21;;;;;;;;;;;4.00;82.20;;;;;;5085292;23;19916;-86
2023/12/14 12:47:48;;;;;;;;;;;3.90;81.90;;;;;;5088504;23;19915;-85
2023/12/14 12:50:17;;;;;;;;;;;3.90;81.70;;;;;;5110062;23;19935;-84
2023/12/14 12:52:38;;;;;;;;;;;3.90;81.70;;;;;;5112728;23;19913;-84
2023/12/14 12:54:58;;;;;;;;;;;3.80;81.60;;;;;;5110139;23;19939;-86
2023/12/14 12:57:19;;;;;;;;;;;3.80;81.60;;;;;;5111207;23;19926;-83
2023/12/14 12:59:39;;;;;;;;;;;3.80;81.30;;;;;;5113150;23;19979;-86
2023/12/14 13:02:02;;;;;;;;;;;3.70;80.80;;;;;;5111614;23;19947;-86
2023/12/14 13:04:26;;;;;;;;;;;3.70;81.10;;;;;;5113482;23;19908;-85
2023/12/14 13:06:50;;;;;;;;;;;3.60;81.00;;;;;;5112222;23;19908;-86
2023/12/14 13:08:51;;;;;;;;;;;3.60;81.00;;;;;;5113540;23;19908;-85
2023/12/14 13:10:51;;;;;;;;;;;3.60;81.00;;;;;;5086109;23;19929;-84
2023/12/14 13:12:52;;;;;;;;;;;3.50;80.90;;;;;;5111691;23;20765;-85
2023/12/14 13:14:58;;;;;;;;;;;3.50;80.70;;;;;;5086576;23;19978;-85
2023/12/14 13:17:04;;;;;;;;;;;3.50;80.90;;;;;;5087441;23;19987;-85
2023/12/14 13:19:06;;;;;;;;;;;3.40;80.90;;;;;;5084061;23;19908;-85
2023/12/14 13:21:13;;;;;;;;;;;3.30;80.90;;;;;;5111578;23;19988;-85
2023/12/14 13:23:13;;;;;;;;;;;3.30;80.90;;;;;;5088912;23;19909;-86
2023/12/14 13:25:28;;;;;;;;;;;3.40;81.00;;;;;;5087257;23;20321;-86
2023/12/14 13:27:36;;;;;;;;;;;3.30;81.00;;;;;;5114584;23;19908;-84
2023/12/14 13:29:37;;;;;;;;;;;3.30;81.00;;;;;;5112634;23;19957;-86
2023/12/14 13:31:38;;;;;;;;;;;3.30;81.00;;;;;;5113838;23;19909;-85
2023/12/14 13:33:41;;;;;;;;;;;3.30;81.00;;;;;;5110570;23;19915;-85
2023/12/14 13:35:42;;;;;;;;;;;3.30;81.10;;;;;;5112151;23;19953;-86
2023/12/14 13:38:00;;;;;;;;;;;3.20;81.00;;;;;;5110442;23;19971;-84
2023/12/14 13:40:04;;;;;;;;;;;3.30;81.20;;;;;;5110440;23;19983;-84
2023/12/14 13:42:08;;;;;;;;;;;3.20;81.20;;;;;;5084516;23;19904;-85
2023/12/14 13:44:09;;;;;;;;;;;3.10;81.10;;;;;;5085108;23;19908;-84
2023/12/14 13:46:11;;;;;;;;;;;3.20;81.20;;;;;;5112298;23;19911;-84
2023/12/14 13:48:12;;;;;;;;;;;3.10;81.20;;;;;;5110556;23;20564;-85
2023/12/14 13:50:13;;;;;;;;;;;3.20;82.00;;;;;;5110908;23;19904;-84
2023/12/14 13:52:16;;;;;;;;;;;3.20;81.40;;;;;;5113015;23;19987;-84
2023/12/14 13:54:17;;;;;;;;;;;3.20;81.50;;;;;;5114829;23;19904;-84
2023/12/14 13:56:18;;;;;;;;;;;3.20;81.50;;;;;;5112812;23;19904;-84
2023/12/14 13:58:23;;;;;;;;;;;3.30;82.30;;;;;;5111932;23;19916;-84
2023/12/14 14:00:24;;;;;;;;;;;3.20;81.50;;;;;;5111534;23;19908;-83
2023/12/14 14:02:30;;;;;;;;;;;3.20;81.50;;;;;;5112719;23;19959;-83
2023/12/14 14:04:33;;;;;;;;;;;3.10;81.40;;;;;;5086893;23;19905;-84